createdAt,value
2024-03-01T00:04:44.816Z,22.33
2024-03-01T00:09:46.514Z,23.80
2024-03-01T00:14:48.192Z,21.27
2024-03-01T00:19:50.367Z,22.83
2024-03-01T00:24:52.254Z,24.00
2024-03-01T00:29:54.218Z,23.67
2024-03-01T00:34:55.901Z,21.17
2024-03-01T00:39:57.623Z,20.02
2024-03-01T00:44:59.428Z,21.10
2024-03-01T00:50:01.092Z,17.77
2024-03-01T00:55:02.804Z,18.48
2024-03-01T01:00:07.328Z,21.67
2024-03-01T01:05:09.900Z,21.83
2024-03-01T01:10:11.875Z,23.98
2024-03-01T01:15:14.379Z,20.25
2024-03-01T01:20:16.591Z,18.75
2024-03-01T01:25:18.476Z,17.23
2024-03-01T01:30:20.288Z,21.30
2024-03-01T01:35:21.955Z,19.42
2024-03-01T01:40:23.731Z,22.08
2024-03-01T01:45:25.849Z,17.48
2024-03-01T01:50:27.789Z,17.08
2024-03-01T01:55:29.998Z,21.70
2024-03-01T02:00:32.235Z,25.48
2024-03-01T02:05:34.208Z,22.30
2024-03-01T02:10:36.047Z,23.77
2024-03-01T02:15:37.835Z,24.05
2024-03-01T02:21:08.224Z,18.17
2024-03-01T02:26:09.975Z,23.42
2024-03-01T02:31:12.461Z,21.88
2024-03-01T02:36:14.155Z,21.95
2024-03-01T02:41:15.767Z,22.13
2024-03-01T02:46:17.823Z,22.10
2024-03-01T02:51:19.532Z,23.67
2024-03-01T02:56:21.284Z,21.48
2024-03-01T03:01:24.699Z,23.38
2024-03-01T03:06:26.883Z,20.75
2024-03-01T03:11:28.536Z,21.98
2024-03-01T03:16:30.314Z,22.50
2024-03-01T03:21:32.001Z,23.27
2024-03-01T03:26:34.273Z,24.20
2024-03-01T03:31:36.028Z,22.42
2024-03-01T03:36:37.893Z,24.98
2024-03-01T03:41:39.799Z,22.70
2024-03-01T03:46:41.453Z,21.60
2024-03-01T03:51:43.589Z,23.65
2024-03-01T03:56:45.260Z,24.05
2024-03-01T04:01:46.945Z,21.33
2024-03-01T04:06:48.765Z,23.33
2024-03-01T04:11:50.659Z,23.33
2024-03-01T04:16:52.318Z,24.30
2024-03-01T04:21:54.070Z,23.13
2024-03-01T04:26:55.768Z,22.67
2024-03-01T04:31:57.490Z,24.60
2024-03-01T04:36:59.448Z,23.55
2024-03-01T04:42:01.883Z,22.00
2024-03-01T04:47:03.636Z,22.40
2024-03-01T04:52:05.410Z,23.48
2024-03-01T04:57:09.049Z,23.33
2024-03-01T05:02:10.827Z,22.98
2024-03-01T05:07:15.968Z,23.80
2024-03-01T05:12:17.999Z,23.23
2024-03-01T05:17:19.772Z,23.80
2024-03-01T05:22:25.288Z,20.05
2024-03-01T05:27:27.085Z,23.85
2024-03-01T05:32:29.336Z,24.13
2024-03-01T05:37:31.222Z,22.75
2024-03-01T05:42:33.218Z,21.23
2024-03-01T05:47:45.316Z,22.35
2024-03-01T05:52:50.044Z,24.27
2024-03-01T05:57:51.813Z,20.92
2024-03-01T06:02:57.178Z,23.70
2024-03-01T06:13:02.155Z,23.98
2024-03-01T06:18:04.006Z,23.88
2024-03-01T06:23:05.992Z,21.80
2024-03-01T06:28:07.684Z,18.25
2024-03-01T06:33:09.562Z,23.45
2024-03-01T06:38:11.312Z,23.15
2024-03-01T06:43:12.994Z,23.55
2024-03-01T06:48:19.337Z,23.20
2024-03-01T06:53:23.057Z,19.00
2024-03-01T06:58:24.682Z,20.02
2024-03-01T07:03:26.324Z,23.13
2024-03-01T07:08:28.374Z,20.83
2024-03-01T07:13:31.079Z,22.20
2024-03-01T07:18:32.864Z,20.63
2024-03-01T07:23:34.655Z,19.98
2024-03-01T07:28:36.518Z,22.45
2024-03-01T07:33:38.187Z,20.55
2024-03-01T07:38:40.541Z,22.60
2024-03-01T07:43:42.235Z,22.05
2024-03-01T07:48:45.517Z,21.55
2024-03-01T07:53:48.792Z,19.45
2024-03-01T07:59:03.975Z,26.00
2024-03-01T08:04:06.177Z,25.52
2024-03-01T08:09:19.239Z,23.50
2024-03-01T08:14:25.808Z,21.45
2024-03-01T08:24:42.378Z,17.55
2024-03-01T08:29:44.212Z,16.25
2024-03-01T08:34:56.339Z,16.33
2024-03-01T08:39:58.554Z,17.17
2024-03-01T08:45:01.057Z,19.60
2024-03-01T08:50:21.497Z,21.08
2024-03-01T08:55:40.904Z,18.88
2024-03-01T09:00:54.442Z,19.00
2024-03-01T09:05:58.172Z,18.95
2024-03-01T09:11:00.251Z,18.75
2024-03-01T09:16:02.396Z,19.48
2024-03-01T09:21:04.629Z,19.52
2024-03-01T09:26:11.390Z,18.33
2024-03-01T09:31:13.263Z,19.75
2024-03-01T09:36:21.195Z,20.35
2024-03-01T09:41:50.300Z,18.13
2024-03-01T09:47:06.194Z,19.45
2024-03-01T09:52:39.360Z,20.17
2024-03-01T09:57:53.430Z,20.45
2024-03-01T10:03:16.918Z,17.40
2024-03-01T10:08:51.327Z,18.63
2024-03-01T10:14:11.707Z,20.17
2024-03-01T10:19:22.982Z,20.55
2024-03-01T10:24:51.646Z,19.70
2024-03-01T10:29:56.383Z,19.88
2024-03-01T10:35:04.664Z,22.02
2024-03-01T10:40:16.591Z,21.30
2024-03-01T10:45:27.506Z,21.48
2024-03-01T10:50:29.893Z,21.83
2024-03-01T10:55:35.404Z,20.33
2024-03-01T11:01:00.492Z,19.15
2024-03-01T11:06:24.737Z,20.63
2024-03-01T11:11:38.364Z,20.13
2024-03-01T11:16:43.449Z,19.20
2024-03-01T11:21:49.685Z,19.92
2024-03-01T11:26:53.877Z,20.48
2024-03-01T11:32:05.821Z,19.17
2024-03-01T11:37:17.442Z,21.52
2024-03-01T11:42:41.120Z,17.27
2024-03-01T11:47:56.224Z,21.45
2024-03-01T11:53:12.220Z,18.70
2024-03-01T11:58:30.484Z,18.90
2024-03-01T12:04:37.490Z,18.52
2024-03-01T12:09:47.828Z,17.95
2024-03-01T12:14:56.346Z,20.05
2024-03-01T12:20:02.224Z,20.27
2024-03-01T12:30:24.998Z,18.73
2024-03-01T12:35:54.493Z,18.58
2024-03-01T12:41:25.796Z,18.55
2024-03-01T12:46:40.205Z,19.88
2024-03-01T12:52:14.480Z,19.13
2024-03-01T12:57:43.742Z,18.35
2024-03-01T13:03:10.043Z,20.65
2024-03-01T13:08:18.200Z,18.45
2024-03-01T13:13:25.889Z,18.13
2024-03-01T13:18:33.201Z,20.38
2024-03-01T13:24:07.293Z,19.95
2024-03-01T13:29:17.281Z,19.33
2024-03-01T13:34:21.805Z,18.85
2024-03-01T13:39:34.118Z,17.75
2024-03-01T13:49:43.143Z,17.48
2024-03-01T13:54:44.914Z,17.33
2024-03-01T13:59:48.149Z,17.50
2024-03-01T14:04:59.336Z,16.55
2024-03-01T14:10:03.000Z,17.45
2024-03-01T14:15:10.123Z,18.10
2024-03-01T14:20:17.397Z,17.73
2024-03-01T14:25:19.566Z,17.27
2024-03-01T14:30:23.829Z,16.95
2024-03-01T14:35:26.110Z,16.27
2024-03-01T14:40:28.614Z,16.20
2024-03-01T14:45:38.440Z,15.88
2024-03-01T14:50:45.226Z,14.85
2024-03-01T14:55:47.003Z,13.75
2024-03-01T15:00:51.142Z,17.67
2024-03-01T15:05:53.060Z,17.30
2024-03-01T15:11:05.340Z,16.73
2024-03-01T15:16:17.380Z,16.52
2024-03-01T15:21:19.709Z,17.63
2024-03-01T15:26:21.387Z,16.55
2024-03-01T15:31:23.681Z,15.60
2024-03-01T15:36:25.365Z,17.80
2024-03-01T15:41:27.105Z,16.92
2024-03-01T15:46:30.487Z,16.20
2024-03-01T15:51:32.235Z,16.98
2024-03-01T15:56:34.519Z,15.00
2024-03-01T16:01:36.627Z,15.98
2024-03-01T16:06:39.228Z,16.42
2024-03-01T16:11:42.469Z,16.20
2024-03-01T16:16:46.796Z,13.98
2024-03-01T16:21:48.556Z,12.32
2024-03-01T16:26:50.275Z,15.38
2024-03-01T16:31:51.982Z,15.68
2024-03-01T16:36:53.686Z,15.25
2024-03-01T16:41:56.087Z,14.35
2024-03-01T16:46:59.895Z,15.20
2024-03-01T16:52:04.589Z,18.88
2024-03-01T16:57:09.300Z,18.27
2024-03-01T17:02:37.973Z,16.70
2024-03-01T17:07:47.701Z,15.82
2024-03-01T17:12:56.412Z,17.92
2024-03-01T17:17:58.670Z,17.77
2024-03-01T17:23:00.428Z,15.93
2024-03-01T17:28:02.752Z,14.15
2024-03-01T17:33:05.468Z,14.32
2024-03-01T17:38:08.340Z,16.73
2024-03-01T17:43:10.672Z,16.25
2024-03-01T17:48:12.377Z,15.73
2024-03-01T17:53:14.213Z,13.63
2024-03-01T17:58:15.894Z,14.70
2024-03-01T18:03:17.627Z,11.55
2024-03-01T18:08:19.280Z,12.30
2024-03-01T18:13:21.725Z,17.23
2024-03-01T18:18:23.610Z,13.18
2024-03-01T18:23:27.343Z,12.23
2024-03-01T18:28:28.983Z,16.75
2024-03-01T18:33:31.053Z,20.08
2024-03-01T18:38:32.697Z,21.77
2024-03-01T18:43:34.703Z,19.45
2024-03-01T18:48:37.110Z,16.80
2024-03-01T18:53:38.903Z,16.10
2024-03-01T18:58:40.629Z,18.50
2024-03-01T19:03:42.638Z,18.67
2024-03-01T19:08:44.377Z,19.17
2024-03-01T19:13:46.068Z,18.75
2024-03-01T19:18:47.852Z,19.13
2024-03-01T19:23:49.525Z,18.52
2024-03-01T19:28:52.299Z,14.48
2024-03-01T19:33:53.956Z,16.00
2024-03-01T19:38:55.718Z,18.23
2024-03-01T19:43:57.757Z,19.60
2024-03-01T19:49:00.247Z,21.83
2024-03-01T19:54:02.007Z,23.60
2024-03-01T19:59:03.916Z,19.75
2024-03-01T20:04:05.893Z,21.50
2024-03-01T20:09:07.898Z,20.08
2024-03-01T20:14:09.815Z,20.05
2024-03-01T20:19:11.588Z,21.90
2024-03-01T20:24:13.664Z,20.83
2024-03-01T20:29:15.585Z,21.58
2024-03-01T20:34:18.357Z,20.02
2024-03-01T20:39:20.094Z,20.23
2024-03-01T20:44:21.818Z,20.55
2024-03-01T20:49:25.004Z,18.55
2024-03-01T20:54:27.063Z,18.08
2024-03-01T20:59:28.857Z,22.33
2024-03-01T21:04:30.728Z,20.10
2024-03-01T21:09:38.230Z,21.70
2024-03-01T21:14:40.317Z,18.58
2024-03-01T21:19:42.336Z,18.52
2024-03-01T21:24:44.046Z,18.95
2024-03-01T21:29:45.707Z,21.77
2024-03-01T21:34:48.073Z,23.35
2024-03-01T21:39:50.216Z,18.60
2024-03-01T21:44:52.028Z,21.40
2024-03-01T21:49:55.760Z,21.25
2024-03-01T21:54:58.150Z,23.67
2024-03-01T21:59:59.890Z,19.88
2024-03-01T22:05:03.612Z,23.70
2024-03-01T22:10:07.894Z,24.75
2024-03-01T22:15:10.036Z,25.60
2024-03-01T22:20:12.146Z,28.73
2024-03-01T22:25:15.420Z,25.30
2024-03-01T22:30:17.372Z,26.33
2024-03-01T22:35:19.121Z,26.60
2024-03-01T22:40:20.838Z,27.42
2024-03-01T22:45:25.054Z,25.48
2024-03-01T22:50:27.301Z,25.73
2024-03-01T22:55:41.623Z,26.50
2024-03-01T23:00:50.362Z,26.83
2024-03-01T23:05:59.426Z,26.95
2024-03-01T23:11:08.012Z,24.02
2024-03-01T23:16:09.817Z,18.80
2024-03-01T23:21:11.840Z,20.58
2024-03-01T23:26:14.226Z,19.90
2024-03-01T23:31:15.889Z,24.42
2024-03-01T23:36:17.667Z,21.98
2024-03-01T23:41:19.301Z,20.65
2024-03-01T23:46:21.048Z,22.77
2024-03-01T23:51:22.786Z,20.17
2024-03-01T23:56:25.334Z,28.70
